sensor_id;sensor_type;location;lat;lon;timestamp;pressure;altitude;pressure_sealevel;temperature;humidity
64610;BME280;51019;46.090;6.350;2023-09-08T00:02:12;96785.88;;;19.87;100.00
64610;BME280;51019;46.090;6.350;2023-09-08T00:04:39;96793.13;;;20.00;100.00
64610;BME280;51019;46.090;6.350;2023-09-08T00:07:06;96787.97;;;19.99;100.00
64610;BME280;51019;46.090;6.350;2023-09-08T00:09:35;96785.53;;;19.97;100.00
64610;BME280;51019;46.090;6.350;2023-09-08T00:12:02;96784.00;;;19.81;100.00
64610;BME280;51019;46.090;6.350;2023-09-08T00:14:29;96768.03;;;19.32;100.00
64610;BME280;51019;46.090;6.350;2023-09-08T00:16:56;96792.78;;;19.54;100.00
64610;BME280;51019;46.090;6.350;2023-09-08T00:19:23;96795.84;;;19.51;100.00
64610;BME280;51019;46.090;6.350;2023-09-08T00:21:50;96806.34;;;19.44;100.00
64610;BME280;51019;46.090;6.350;2023-09-08T00:24:17;96787.41;;;19.26;100.00
64610;BME280;51019;46.090;6.350;2023-09-08T00:26:46;96802.84;;;19.16;100.00
64610;BME280;51019;46.090;6.350;2023-09-08T00:29:13;96798.47;;;19.30;100.00
64610;BME280;51019;46.090;6.350;2023-09-08T00:31:41;96803.47;;;19.39;100.00
64610;BME280;51019;46.090;6.350;2023-09-08T00:34:08;96802.66;;;19.39;100.00
64610;BME280;51019;46.090;6.350;2023-09-08T00:36:36;96808.03;;;19.24;100.00
64610;BME280;51019;46.090;6.350;2023-09-08T00:39:03;96814.34;;;19.23;100.00
64610;BME280;51019;46.090;6.350;2023-09-08T00:44:54;96804.06;;;18.99;100.00
64610;BME280;51019;46.090;6.350;2023-09-08T00:47:21;96804.41;;;19.10;100.00
64610;BME280;51019;46.090;6.350;2023-09-08T00:49:52;96809.41;;;19.20;100.00
64610;BME280;51019;46.090;6.350;2023-09-08T00:52:19;96806.38;;;19.02;100.00
64610;BME280;51019;46.090;6.350;2023-09-08T00:54:46;96808.34;;;19.14;100.00
64610;BME280;51019;46.090;6.350;2023-09-08T00:57:13;96813.06;;;19.19;100.00
64610;BME280;51019;46.090;6.350;2023-09-08T00:59:40;96811.31;;;19.05;100.00
64610;BME280;51019;46.090;6.350;2023-09-08T01:02:11;96808.69;;;18.90;100.00
64610;BME280;51019;46.090;6.350;2023-09-08T01:04:38;96809.16;;;18.94;100.00
64610;BME280;51019;46.090;6.350;2023-09-08T01:07:07;96801.19;;;18.94;100.00
64610;BME280;51019;46.090;6.350;2023-09-08T01:09:35;96776.28;;;18.95;100.00
64610;BME280;51019;46.090;6.350;2023-09-08T01:12:04;96808.84;;;19.03;100.00
64610;BME280;51019;46.090;6.350;2023-09-08T01:14:33;96802.06;;;19.01;100.00
64610;BME280;51019;46.090;6.350;2023-09-08T01:17:00;96805.34;;;19.03;100.00
64610;BME280;51019;46.090;6.350;2023-09-08T01:19:29;96800.41;;;19.00;100.00
64610;BME280;51019;46.090;6.350;2023-09-08T01:22:29;96798.22;;;19.03;100.00
64610;BME280;51019;46.090;6.350;2023-09-08T01:25:10;96805.53;;;19.01;100.00
64610;BME280;51019;46.090;6.350;2023-09-08T01:27:43;96794.94;;;18.86;100.00
64610;BME280;51019;46.090;6.350;2023-09-08T01:30:11;96798.56;;;18.79;100.00
64610;BME280;51019;46.090;6.350;2023-09-08T01:32:40;96791.06;;;18.53;100.00
64610;BME280;51019;46.090;6.350;2023-09-08T01:35:08;96787.34;;;18.47;100.00
64610;BME280;51019;46.090;6.350;2023-09-08T01:37:35;96780.38;;;18.46;100.00
64610;BME280;51019;46.090;6.350;2023-09-08T01:40:02;96795.00;;;18.72;100.00
64610;BME280;51019;46.090;6.350;2023-09-08T01:42:31;96796.56;;;18.66;100.00
64610;BME280;51019;46.090;6.350;2023-09-08T01:44:58;96797.78;;;18.49;100.00
64610;BME280;51019;46.090;6.350;2023-09-08T01:47:25;96785.06;;;18.30;100.00
64610;BME280;51019;46.090;6.350;2023-09-08T01:49:52;96803.16;;;18.41;100.00
64610;BME280;51019;46.090;6.350;2023-09-08T01:52:19;96799.91;;;18.39;100.00
64610;BME280;51019;46.090;6.350;2023-09-08T01:54:46;96798.50;;;18.43;100.00
64610;BME280;51019;46.090;6.350;2023-09-08T01:57:13;96798.78;;;18.48;100.00
64610;BME280;51019;46.090;6.350;2023-09-08T01:59:42;96799.69;;;18.40;100.00
64610;BME280;51019;46.090;6.350;2023-09-08T02:02:11;96797.59;;;18.50;100.00
64610;BME280;51019;46.090;6.350;2023-09-08T02:04:38;96798.78;;;18.48;100.00
64610;BME280;51019;46.090;6.350;2023-09-08T02:07:05;96750.97;;;18.12;100.00
64610;BME280;51019;46.090;6.350;2023-09-08T02:09:33;96796.13;;;18.48;100.00
64610;BME280;51019;46.090;6.350;2023-09-08T02:12:00;96796.13;;;18.48;100.00
64610;BME280;51019;46.090;6.350;2023-09-08T02:14:27;96789.81;;;18.49;100.00
64610;BME280;51019;46.090;6.350;2023-09-08T02:16:56;96790.16;;;18.46;100.00
64610;BME280;51019;46.090;6.350;2023-09-08T02:19:23;96794.47;;;18.47;100.00
64610;BME280;51019;46.090;6.350;2023-09-08T02:21:50;96796.38;;;18.53;100.00
64610;BME280;51019;46.090;6.350;2023-09-08T02:24:17;96796.50;;;18.45;100.00
64610;BME280;51019;46.090;6.350;2023-09-08T02:26:44;96797.44;;;17.93;100.00
64610;BME280;51019;46.090;6.350;2023-09-08T02:29:11;96792.22;;;18.14;100.00
64610;BME280;51019;46.090;6.350;2023-09-08T02:31:37;96795.97;;;18.05;100.00
64610;BME280;51019;46.090;6.350;2023-09-08T02:34:06;96793.00;;;17.86;100.00
64610;BME280;51019;46.090;6.350;2023-09-08T02:36:34;96800.81;;;18.02;100.00
64610;BME280;51019;46.090;6.350;2023-09-08T02:39:00;96803.09;;;17.90;100.00
64610;BME280;51019;46.090;6.350;2023-09-08T02:41:27;96805.72;;;17.90;100.00
64610;BME280;51019;46.090;6.350;2023-09-08T02:43:54;96801.72;;;17.94;100.00
64610;BME280;51019;46.090;6.350;2023-09-08T02:46:21;96804.09;;;17.89;100.00
64610;BME280;51019;46.090;6.350;2023-09-08T02:48:48;96774.63;;;17.84;100.00
64610;BME280;51019;46.090;6.350;2023-09-08T02:51:17;96803.00;;;17.98;100.00
64610;BME280;51019;46.090;6.350;2023-09-08T02:53:44;96801.91;;;18.07;100.00
64610;BME280;51019;46.090;6.350;2023-09-08T02:56:10;96807.03;;;17.94;100.00
64610;BME280;51019;46.090;6.350;2023-09-08T02:58:37;96808.59;;;18.03;100.00
64610;BME280;51019;46.090;6.350;2023-09-08T03:01:11;96791.84;;;18.03;100.00
64610;BME280;51019;46.090;6.350;2023-09-08T03:03:40;96800.06;;;18.08;100.00
64610;BME280;51019;46.090;6.350;2023-09-08T03:06:07;96806.38;;;17.92;100.00
64610;BME280;51019;46.090;6.350;2023-09-08T03:08:36;96805.53;;;17.77;100.00
64610;BME280;51019;46.090;6.350;2023-09-08T03:11:04;96809.19;;;17.76;100.00
64610;BME280;51019;46.090;6.350;2023-09-08T03:13:32;96811.75;;;17.84;100.00
64610;BME280;51019;46.090;6.350;2023-09-08T03:16:02;96811.47;;;17.79;100.00
64610;BME280;51019;46.090;6.350;2023-09-08T03:18:30;96820.53;;;17.70;100.00
64610;BME280;51019;46.090;6.350;2023-09-08T03:20:58;96813.00;;;17.73;100.00
64610;BME280;51019;46.090;6.350;2023-09-08T03:23:25;96820.34;;;17.71;100.00
64610;BME280;51019;46.090;6.350;2023-09-08T03:25:54;96822.72;;;17.81;100.00
64610;BME280;51019;46.090;6.350;2023-09-08T03:28:21;96810.66;;;17.56;100.00
64610;BME280;51019;46.090;6.350;2023-09-08T03:30:47;96813.31;;;17.56;100.00
64610;BME280;51019;46.090;6.350;2023-09-08T03:33:14;96791.56;;;17.46;100.00
64610;BME280;51019;46.090;6.350;2023-09-08T03:35:41;96815.25;;;17.62;100.00
64610;BME280;51019;46.090;6.350;2023-09-08T03:38:08;96810.50;;;17.57;100.00
64610;BME280;51019;46.090;6.350;2023-09-08T03:40:35;96802.84;;;17.39;100.00
64610;BME280;51019;46.090;6.350;2023-09-08T03:43:03;96819.22;;;17.66;100.00
64610;BME280;51019;46.090;6.350;2023-09-08T03:45:31;96808.44;;;17.67;100.00
64610;BME280;51019;46.090;6.350;2023-09-08T03:47:57;96809.63;;;17.65;100.00
64610;BME280;51019;46.090;6.350;2023-09-08T03:50:24;96814.75;;;17.43;100.00
64610;BME280;51019;46.090;6.350;2023-09-08T03:52:51;96801.16;;;17.47;100.00
64610;BME280;51019;46.090;6.350;2023-09-08T03:55:18;96815.91;;;17.41;100.00
64610;BME280;51019;46.090;6.350;2023-09-08T03:57:45;96811.88;;;17.30;100.00
64610;BME280;51019;46.090;6.350;2023-09-08T04:00:16;96796.88;;;17.23;100.00
64610;BME280;51019;46.090;6.350;2023-09-08T04:02:47;96810.94;;;17.23;100.00
64610;BME280;51019;46.090;6.350;2023-09-08T04:05:14;96805.47;;;17.25;100.00
64610;BME280;51019;46.090;6.350;2023-09-08T04:07:43;96809.94;;;17.24;100.00
64610;BME280;51019;46.090;6.350;2023-09-08T04:10:10;96773.09;;;16.92;100.00
64610;BME280;51019;46.090;6.350;2023-09-08T04:12:38;96799.22;;;17.18;100.00
64610;BME280;51019;46.090;6.350;2023-09-08T04:15:06;96796.16;;;17.06;100.00
64610;BME280;51019;46.090;6.350;2023-09-08T04:17:35;96805.09;;;17.05;100.00
64610;BME280;51019;46.090;6.350;2023-09-08T04:20:03;96815.34;;;17.31;100.00
64610;BME280;51019;46.090;6.350;2023-09-08T04:22:32;96784.28;;;17.02;100.00
64610;BME280;51019;46.090;6.350;2023-09-08T04:24:59;96814.69;;;17.06;100.00
64610;BME280;51019;46.090;6.350;2023-09-08T04:27:26;96815.50;;;17.06;100.00
64610;BME280;51019;46.090;6.350;2023-09-08T04:29:53;96813.03;;;17.05;100.00
64610;BME280;51019;46.090;6.350;2023-09-08T04:32:20;96820.22;;;17.19;100.00
64610;BME280;51019;46.090;6.350;2023-09-08T04:34:48;96821.63;;;17.07;100.00
64610;BME280;51019;46.090;6.350;2023-09-08T04:37:15;96826.69;;;16.94;100.00
64610;BME280;51019;46.090;6.350;2023-09-08T04:39:42;96826.28;;;17.05;100.00
64610;BME280;51019;46.090;6.350;2023-09-08T04:42:09;96829.63;;;16.99;100.00
64610;BME280;51019;46.090;6.350;2023-09-08T04:44:36;96814.16;;;16.88;100.00
64610;BME280;51019;46.090;6.350;2023-09-08T04:47:04;96830.22;;;17.09;100.00
64610;BME280;51019;46.090;6.350;2023-09-08T04:49:31;96830.84;;;16.88;100.00
64610;BME280;51019;46.090;6.350;2023-09-08T04:51:59;96828.31;;;17.03;100.00
64610;BME280;51019;46.090;6.350;2023-09-08T04:54:26;96805.69;;;16.92;100.00
64610;BME280;51019;46.090;6.350;2023-09-08T04:56:53;96739.22;;;16.56;100.00
64610;BME280;51019;46.090;6.350;2023-09-08T04:59:20;96835.16;;;16.89;100.00
64610;BME280;51019;46.090;6.350;2023-09-08T05:01:48;96830.47;;;16.99;100.00
64610;BME280;51019;46.090;6.350;2023-09-08T05:04:16;96829.81;;;17.20;100.00
64610;BME280;51019;46.090;6.350;2023-09-08T05:06:43;96830.53;;;17.14;100.00
64610;BME280;51019;46.090;6.350;2023-09-08T05:09:11;96838.53;;;17.29;100.00
64610;BME280;51019;46.090;6.350;2023-09-08T05:11:38;96816.59;;;17.20;100.00
64610;BME280;51019;46.090;6.350;2023-09-08T05:14:04;96843.78;;;17.14;100.00
64610;BME280;51019;46.090;6.350;2023-09-08T05:16:31;96844.19;;;17.03;100.00
64610;BME280;51019;46.090;6.350;2023-09-08T05:19:05;96842.47;;;17.10;100.00
64610;BME280;51019;46.090;6.350;2023-09-08T05:21:33;96840.06;;;17.00;100.00
64610;BME280;51019;46.090;6.350;2023-09-08T05:24:00;96843.22;;;16.96;100.00
64610;BME280;51019;46.090;6.350;2023-09-08T05:26:29;96851.34;;;17.17;100.00
64610;BME280;51019;46.090;6.350;2023-09-08T05:28:55;96831.13;;;17.01;100.00
64610;BME280;51019;46.090;6.350;2023-09-08T05:31:22;96847.47;;;17.05;100.00
64610;BME280;51019;46.090;6.350;2023-09-08T05:33:49;96851.81;;;16.98;100.00
64610;BME280;51019;46.090;6.350;2023-09-08T05:36:16;96827.34;;;16.96;100.00
64610;BME280;51019;46.090;6.350;2023-09-08T05:38:43;96840.25;;;17.22;100.00
64610;BME280;51019;46.090;6.350;2023-09-08T05:41:09;96860.44;;;17.23;100.00
64610;BME280;51019;46.090;6.350;2023-09-08T05:43:38;96860.31;;;17.39;100.00
64610;BME280;51019;46.090;6.350;2023-09-08T05:46:05;96859.59;;;17.22;100.00
64610;BME280;51019;46.090;6.350;2023-09-08T05:48:32;96844.94;;;17.12;100.00
64610;BME280;51019;46.090;6.350;2023-09-08T05:50:59;96857.66;;;17.62;100.00
64610;BME280;51019;46.090;6.350;2023-09-08T05:53:27;96854.91;;;17.78;100.00
64610;BME280;51019;46.090;6.350;2023-09-08T05:55:54;96860.84;;;17.95;100.00
64610;BME280;51019;46.090;6.350;2023-09-08T05:58:21;96861.69;;;17.81;100.00
64610;BME280;51019;46.090;6.350;2023-09-08T06:00:51;96864.84;;;18.13;100.00
64610;BME280;51019;46.090;6.350;2023-09-08T06:03:17;96873.69;;;18.21;100.00
64610;BME280;51019;46.090;6.350;2023-09-08T06:05:44;96868.94;;;18.31;100.00
64610;BME280;51019;46.090;6.350;2023-09-08T06:08:11;96846.91;;;18.30;100.00
64610;BME280;51019;46.090;6.350;2023-09-08T06:10:38;96876.81;;;18.54;100.00
64610;BME280;51019;46.090;6.350;2023-09-08T06:13:07;96868.06;;;18.68;100.00
64610;BME280;51019;46.090;6.350;2023-09-08T06:15:34;96877.13;;;18.73;100.00
64610;BME280;51019;46.090;6.350;2023-09-08T06:18:02;96882.75;;;19.00;100.00
64610;BME280;51019;46.090;6.350;2023-09-08T06:20:30;96880.28;;;19.34;100.00
64610;BME280;51019;46.090;6.350;2023-09-08T06:22:57;96882.91;;;19.70;100.00
64610;BME280;51019;46.090;6.350;2023-09-08T06:25:24;96878.38;;;19.28;100.00
64610;BME280;51019;46.090;6.350;2023-09-08T06:27:51;96891.72;;;19.71;100.00
64610;BME280;51019;46.090;6.350;2023-09-08T06:30:18;96846.75;;;19.54;100.00
64610;BME280;51019;46.090;6.350;2023-09-08T06:32:44;96880.94;;;19.79;100.00
64610;BME280;51019;46.090;6.350;2023-09-08T06:35:13;96871.03;;;19.94;100.00
64610;BME280;51019;46.090;6.350;2023-09-08T06:37:40;96875.88;;;20.12;100.00
64610;BME280;51019;46.090;6.350;2023-09-08T06:40:07;96888.94;;;20.35;100.00
64610;BME280;51019;46.090;6.350;2023-09-08T06:42:34;96899.41;;;20.64;100.00
64610;BME280;51019;46.090;6.350;2023-09-08T06:45:02;96894.38;;;20.48;100.00
64610;BME280;51019;46.090;6.350;2023-09-08T06:47:29;96883.00;;;20.67;100.00
64610;BME280;51019;46.090;6.350;2023-09-08T06:49:56;96887.56;;;20.80;100.00
64610;BME280;51019;46.090;6.350;2023-09-08T06:52:24;96888.72;;;21.05;100.00
64610;BME280;51019;46.090;6.350;2023-09-08T06:54:51;96870.19;;;20.90;100.00
64610;BME280;51019;46.090;6.350;2023-09-08T06:57:18;96881.88;;;20.89;100.00
64610;BME280;51019;46.090;6.350;2023-09-08T06:59:46;96887.41;;;21.29;100.00
64610;BME280;51019;46.090;6.350;2023-09-08T07:02:15;96857.25;;;21.22;100.00
64610;BME280;51019;46.090;6.350;2023-09-08T07:04:42;96890.19;;;22.08;100.00
64610;BME280;51019;46.090;6.350;2023-09-08T07:07:09;96894.91;;;22.06;100.00
64610;BME280;51019;46.090;6.350;2023-09-08T07:09:38;96890.78;;;22.30;100.00
64610;BME280;51019;46.090;6.350;2023-09-08T07:12:05;96887.06;;;22.37;100.00
64610;BME280;51019;46.090;6.350;2023-09-08T07:14:33;96874.16;;;22.28;100.00
64610;BME280;51019;46.090;6.350;2023-09-08T07:17:00;96884.16;;;22.59;100.00
64610;BME280;51019;46.090;6.350;2023-09-08T07:19:28;96886.63;;;22.67;100.00
64610;BME280;51019;46.090;6.350;2023-09-08T07:21:55;96877.94;;;22.71;100.00
64610;BME280;51019;46.090;6.350;2023-09-08T07:24:22;96880.53;;;23.04;100.00
64610;BME280;51019;46.090;6.350;2023-09-08T07:26:51;96877.69;;;23.37;100.00
64610;BME280;51019;46.090;6.350;2023-09-08T07:29:18;96865.19;;;23.69;100.00
64610;BME280;51019;46.090;6.350;2023-09-08T07:31:45;96881.16;;;24.32;100.00
64610;BME280;51019;46.090;6.350;2023-09-08T07:34:12;96884.03;;;24.06;100.00
64610;BME280;51019;46.090;6.350;2023-09-08T07:36:38;96878.53;;;23.76;100.00
64610;BME280;51019;46.090;6.350;2023-09-08T07:39:05;96880.38;;;23.75;100.00
64610;BME280;51019;46.090;6.350;2023-09-08T07:41:32;96885.06;;;24.05;100.00
64610;BME280;51019;46.090;6.350;2023-09-08T07:44:02;96883.53;;;24.15;100.00
64610;BME280;51019;46.090;6.350;2023-09-08T07:46:29;96878.19;;;24.15;100.00
64610;BME280;51019;46.090;6.350;2023-09-08T07:48:58;96873.19;;;24.01;100.00
64610;BME280;51019;46.090;6.350;2023-09-08T07:51:25;96868.59;;;24.33;100.00
64610;BME280;51019;46.090;6.350;2023-09-08T07:53:53;96889.19;;;24.57;100.00
64610;BME280;51019;46.090;6.350;2023-09-08T07:56:21;96887.31;;;24.76;100.00
64610;BME280;51019;46.090;6.350;2023-09-08T07:58:48;96880.63;;;24.67;100.00
64610;BME280;51019;46.090;6.350;2023-09-08T08:01:17;96876.47;;;24.71;100.00
64610;BME280;51019;46.090;6.350;2023-09-08T08:03:43;96872.16;;;24.70;100.00
64610;BME280;51019;46.090;6.350;2023-09-08T08:06:11;96894.41;;;25.25;100.00
64610;BME280;51019;46.090;6.350;2023-09-08T08:08:37;96894.19;;;25.26;100.00
64610;BME280;51019;46.090;6.350;2023-09-08T08:11:10;96874.78;;;25.54;100.00
64610;BME280;51019;46.090;6.350;2023-09-08T08:13:37;96887.91;;;26.04;100.00
64610;BME280;51019;46.090;6.350;2023-09-08T08:16:05;96887.75;;;25.87;100.00
64610;BME280;51019;46.090;6.350;2023-09-08T08:18:35;96877.09;;;26.34;100.00
64610;BME280;51019;46.090;6.350;2023-09-08T08:21:03;96880.59;;;26.46;98.96
64610;BME280;51019;46.090;6.350;2023-09-08T08:23:30;96882.91;;;26.77;95.22
64610;BME280;51019;46.090;6.350;2023-09-08T08:25:59;96867.53;;;26.50;98.31
64610;BME280;51019;46.090;6.350;2023-09-08T08:28:26;96877.88;;;26.93;92.56
64610;BME280;51019;46.090;6.350;2023-09-08T08:30:53;96873.69;;;26.73;88.72
64610;BME280;51019;46.090;6.350;2023-09-08T08:33:21;96868.03;;;26.98;86.27
64610;BME280;51019;46.090;6.350;2023-09-08T08:35:53;96862.69;;;26.75;90.18
64610;BME280;51019;46.090;6.350;2023-09-08T08:38:20;96877.28;;;27.02;90.19
64610;BME280;51019;46.090;6.350;2023-09-08T08:40:47;96867.72;;;26.95;86.64
64610;BME280;51019;46.090;6.350;2023-09-08T08:43:16;96876.28;;;27.77;80.89
64610;BME280;51019;46.090;6.350;2023-09-08T08:45:44;96865.22;;;27.73;83.05
64610;BME280;51019;46.090;6.350;2023-09-08T08:48:13;96875.00;;;28.13;79.88
64610;BME280;51019;46.090;6.350;2023-09-08T08:50:43;96867.16;;;28.11;75.83
64610;BME280;51019;46.090;6.350;2023-09-08T08:53:12;96873.13;;;28.13;78.80
64610;BME280;51019;46.090;6.350;2023-09-08T08:55:40;96870.09;;;28.22;78.94
64610;BME280;51019;46.090;6.350;2023-09-08T08:58:09;96872.66;;;28.33;77.11
64610;BME280;51019;46.090;6.350;2023-09-08T09:00:36;96833.91;;;28.56;68.96
64610;BME280;51019;46.090;6.350;2023-09-08T09:03:04;96868.66;;;29.56;65.53
64610;BME280;51019;46.090;6.350;2023-09-08T09:05:33;96848.28;;;29.00;65.52
64610;BME280;51019;46.090;6.350;2023-09-08T09:08:01;96862.38;;;29.78;64.57
64610;BME280;51019;46.090;6.350;2023-09-08T09:10:32;96862.00;;;29.69;64.36
64610;BME280;51019;46.090;6.350;2023-09-08T09:12:59;96854.84;;;30.12;61.37
64610;BME280;51019;46.090;6.350;2023-09-08T09:15:30;96861.50;;;29.72;60.87
64610;BME280;51019;46.090;6.350;2023-09-08T09:18:04;96857.28;;;29.54;61.47
64610;BME280;51019;46.090;6.350;2023-09-08T09:20:32;96849.22;;;29.91;58.93
64610;BME280;51019;46.090;6.350;2023-09-08T09:22:59;96857.56;;;29.85;60.22
64610;BME280;51019;46.090;6.350;2023-09-08T09:25:29;96848.16;;;30.61;57.86
64610;BME280;51019;46.090;6.350;2023-09-08T09:28:04;96793.00;;;30.20;56.42
64610;BME280;51019;46.090;6.350;2023-09-08T09:30:47;96840.34;;;30.65;55.67
64610;BME280;51019;46.090;6.350;2023-09-08T09:33:15;96850.66;;;30.73;56.40
64610;BME280;51019;46.090;6.350;2023-09-08T09:35:44;96836.97;;;30.95;55.91
64610;BME280;51019;46.090;6.350;2023-09-08T09:38:12;96842.59;;;30.83;53.89
64610;BME280;51019;46.090;6.350;2023-09-08T09:40:40;96835.44;;;30.57;53.41
64610;BME280;51019;46.090;6.350;2023-09-08T09:43:10;96833.16;;;30.44;54.12
64610;BME280;51019;46.090;6.350;2023-09-08T09:45:38;96837.13;;;30.73;54.52
64610;BME280;51019;46.090;6.350;2023-09-08T09:48:06;96834.38;;;30.21;53.78
64610;BME280;51019;46.090;6.350;2023-09-08T09:50:36;96833.81;;;30.61;52.38
64610;BME280;51019;46.090;6.350;2023-09-08T09:53:08;96828.53;;;30.81;49.71
64610;BME280;51019;46.090;6.350;2023-09-08T09:55:36;96837.22;;;31.76;50.46
64610;BME280;51019;46.090;6.350;2023-09-08T09:58:04;96825.78;;;31.54;50.93
64610;BME280;51019;46.090;6.350;2023-09-08T10:00:34;96838.53;;;31.48;49.64
64610;BME280;51019;46.090;6.350;2023-09-08T10:03:03;96825.63;;;30.51;53.40
64610;BME280;51019;46.090;6.350;2023-09-08T10:05:31;96830.94;;;31.55;55.53
64610;BME280;51019;46.090;6.350;2023-09-08T10:07:58;96823.88;;;31.49;50.06
64610;BME280;51019;46.090;6.350;2023-09-08T10:10:27;96823.13;;;32.50;47.21
64610;BME280;51019;46.090;6.350;2023-09-08T10:13:02;96822.06;;;31.70;49.34
64610;BME280;51019;46.090;6.350;2023-09-08T10:15:30;96800.94;;;31.92;47.68
64610;BME280;51019;46.090;6.350;2023-09-08T10:18:04;96813.09;;;32.45;50.45
64610;BME280;51019;46.090;6.350;2023-09-08T10:20:33;96803.88;;;32.31;51.38
64610;BME280;51019;46.090;6.350;2023-09-08T10:23:06;96816.38;;;32.27;49.36
64610;BME280;51019;46.090;6.350;2023-09-08T10:25:38;96803.91;;;32.21;47.47
64610;BME280;51019;46.090;6.350;2023-09-08T10:28:06;96805.97;;;32.75;48.86
64610;BME280;51019;46.090;6.350;2023-09-08T10:30:33;96816.19;;;32.98;48.58
64610;BME280;51019;46.090;6.350;2023-09-08T10:33:03;96801.94;;;32.52;48.80
64610;BME280;51019;46.090;6.350;2023-09-08T10:35:32;96805.75;;;33.21;46.63
64610;BME280;51019;46.090;6.350;2023-09-08T10:38:23;96802.81;;;33.17;45.67
64610;BME280;51019;46.090;6.350;2023-09-08T10:40:50;96803.84;;;32.57;45.87
64610;BME280;51019;46.090;6.350;2023-09-08T10:43:19;96772.94;;;32.42;47.62
64610;BME280;51019;46.090;6.350;2023-09-08T10:45:48;96793.59;;;33.08;45.37
64610;BME280;51019;46.090;6.350;2023-09-08T10:48:19;96794.06;;;32.71;45.50
64610;BME280;51019;46.090;6.350;2023-09-08T10:50:47;96794.44;;;33.58;45.48
64610;BME280;51019;46.090;6.350;2023-09-08T10:53:17;96782.72;;;32.28;48.23
64610;BME280;51019;46.090;6.350;2023-09-08T10:55:46;96793.47;;;32.74;47.84
64610;BME280;51019;46.090;6.350;2023-09-08T10:58:19;96789.94;;;32.84;47.23
64610;BME280;51019;46.090;6.350;2023-09-08T11:00:48;96787.19;;;32.94;47.99
64610;BME280;51019;46.090;6.350;2023-09-08T11:03:27;96794.28;;;32.79;46.77
64610;BME280;51019;46.090;6.350;2023-09-08T11:05:58;96781.03;;;33.22;46.17
64610;BME280;51019;46.090;6.350;2023-09-08T11:08:26;96782.63;;;33.72;43.11
64610;BME280;51019;46.090;6.350;2023-09-08T11:10:54;96788.97;;;33.63;45.58
64610;BME280;51019;46.090;6.350;2023-09-08T11:13:22;96778.50;;;32.87;46.45
64610;BME280;51019;46.090;6.350;2023-09-08T11:15:51;96789.09;;;33.42;45.24
64610;BME280;51019;46.090;6.350;2023-09-08T11:18:27;96778.38;;;34.24;42.54
64610;BME280;51019;46.090;6.350;2023-09-08T11:21:00;96772.59;;;32.64;46.53
64610;BME280;51019;46.090;6.350;2023-09-08T11:23:29;96774.97;;;33.84;43.20
64610;BME280;51019;46.090;6.350;2023-09-08T11:25:57;96775.72;;;34.72;42.83
64610;BME280;51019;46.090;6.350;2023-09-08T11:28:26;96769.22;;;34.15;43.90
64610;BME280;51019;46.090;6.350;2023-09-08T11:30:54;96753.75;;;34.10;43.96
64610;BME280;51019;46.090;6.350;2023-09-08T11:33:22;96770.28;;;34.95;42.50
64610;BME280;51019;46.090;6.350;2023-09-08T11:35:53;96767.13;;;35.07;42.27
64610;BME280;51019;46.090;6.350;2023-09-08T11:38:24;96769.47;;;34.71;42.37
64610;BME280;51019;46.090;6.350;2023-09-08T11:40:55;96770.19;;;35.43;42.05
64610;BME280;51019;46.090;6.350;2023-09-08T11:43:25;96763.19;;;34.76;41.41
64610;BME280;51019;46.090;6.350;2023-09-08T11:45:54;96763.50;;;34.69;42.92
64610;BME280;51019;46.090;6.350;2023-09-08T11:48:24;96763.72;;;34.73;44.10
64610;BME280;51019;46.090;6.350;2023-09-08T11:51:00;96755.63;;;34.91;42.57
64610;BME280;51019;46.090;6.350;2023-09-08T11:53:27;96765.25;;;34.84;41.78
64610;BME280;51019;46.090;6.350;2023-09-08T11:55:55;96760.19;;;34.48;44.80
64610;BME280;51019;46.090;6.350;2023-09-08T11:58:22;96759.72;;;34.89;42.72
64610;BME280;51019;46.090;6.350;2023-09-08T12:00:49;96753.97;;;35.52;42.09
64610;BME280;51019;46.090;6.350;2023-09-08T12:03:17;96754.19;;;35.55;42.50
64610;BME280;51019;46.090;6.350;2023-09-08T12:05:44;96748.63;;;35.04;41.96
64610;BME280;51019;46.090;6.350;2023-09-08T12:08:13;96739.38;;;35.05;42.80
64610;BME280;51019;46.090;6.350;2023-09-08T12:10:41;96735.47;;;35.49;41.79
64610;BME280;51019;46.090;6.350;2023-09-08T12:13:09;96745.28;;;35.31;40.79
64610;BME280;51019;46.090;6.350;2023-09-08T12:15:40;96743.59;;;35.54;41.17
64610;BME280;51019;46.090;6.350;2023-09-08T12:18:10;96728.84;;;35.36;41.20
64610;BME280;51019;46.090;6.350;2023-09-08T12:20:38;96732.00;;;35.24;42.67
64610;BME280;51019;46.090;6.350;2023-09-08T12:23:15;96715.63;;;35.29;41.72
64610;BME280;51019;46.090;6.350;2023-09-08T12:25:47;96731.50;;;35.92;41.70
64610;BME280;51019;46.090;6.350;2023-09-08T12:28:17;96734.41;;;35.82;38.97
64610;BME280;51019;46.090;6.350;2023-09-08T12:30:46;96733.72;;;35.90;39.99
64610;BME280;51019;46.090;6.350;2023-09-08T12:33:13;96729.81;;;35.96;39.47
64610;BME280;51019;46.090;6.350;2023-09-08T12:35:42;96720.38;;;36.21;40.59
64610;BME280;51019;46.090;6.350;2023-09-08T12:38:10;96721.66;;;36.10;38.75
64610;BME280;51019;46.090;6.350;2023-09-08T12:40:37;96722.59;;;36.60;38.81
64610;BME280;51019;46.090;6.350;2023-09-08T12:43:10;96709.50;;;35.19;39.97
64610;BME280;51019;46.090;6.350;2023-09-08T12:45:37;96714.53;;;35.30;39.77
64610;BME280;51019;46.090;6.350;2023-09-08T12:48:05;96695.13;;;35.51;39.66
64610;BME280;51019;46.090;6.350;2023-09-08T12:50:33;96713.91;;;36.45;38.75
64610;BME280;51019;46.090;6.350;2023-09-08T12:53:00;96702.16;;;36.85;38.51
64610;BME280;51019;46.090;6.350;2023-09-08T12:55:27;96699.09;;;35.02;40.29
64610;BME280;51019;46.090;6.350;2023-09-08T12:57:55;96701.69;;;35.82;39.12
64610;BME280;51019;46.090;6.350;2023-09-08T13:00:24;96692.56;;;35.41;40.16
64610;BME280;51019;46.090;6.350;2023-09-08T13:02:53;96700.31;;;35.98;38.41